sensor_id;sensor_type;location;lat;lon;timestamp;P1;durP1;ratioP1;P2;durP2;ratioP2
18695;SDS011;22617;43.690;27.956;2024-03-02T00:01:34;15.60;;;6.07;;
18695;SDS011;22617;43.690;27.956;2024-03-02T00:06:38;23.80;;;6.10;;
18695;SDS011;22617;43.690;27.956;2024-03-02T00:11:42;19.80;;;5.77;;
18695;SDS011;22617;43.690;27.956;2024-03-02T00:16:46;16.90;;;7.03;;
18695;SDS011;22617;43.690;27.956;2024-03-02T00:21:50;26.70;;;6.63;;
18695;SDS011;22617;43.690;27.956;2024-03-02T00:26:55;17.47;;;6.80;;
18695;SDS011;22617;43.690;27.956;2024-03-02T00:31:58;22.43;;;7.13;;
18695;SDS011;22617;43.690;27.956;2024-03-02T00:37:04;21.20;;;6.53;;
18695;SDS011;22617;43.690;27.956;2024-03-02T00:42:09;19.13;;;6.27;;
18695;SDS011;22617;43.690;27.956;2024-03-02T00:47:15;19.97;;;5.80;;
18695;SDS011;22617;43.690;27.956;2024-03-02T00:52:18;28.23;;;6.33;;
18695;SDS011;22617;43.690;27.956;2024-03-02T00:57:23;24.77;;;6.33;;
18695;SDS011;22617;43.690;27.956;2024-03-02T01:02:27;26.90;;;6.87;;
18695;SDS011;22617;43.690;27.956;2024-03-02T01:07:32;18.40;;;6.33;;
18695;SDS011;22617;43.690;27.956;2024-03-02T01:12:37;26.60;;;7.13;;
18695;SDS011;22617;43.690;27.956;2024-03-02T01:17:41;26.43;;;7.20;;
18695;SDS011;22617;43.690;27.956;2024-03-02T01:22:45;21.07;;;6.73;;
18695;SDS011;22617;43.690;27.956;2024-03-02T01:27:50;24.03;;;6.73;;
18695;SDS011;22617;43.690;27.956;2024-03-02T01:32:54;24.13;;;7.23;;
18695;SDS011;22617;43.690;27.956;2024-03-02T01:37:57;26.67;;;7.60;;
18695;SDS011;22617;43.690;27.956;2024-03-02T01:43:03;24.83;;;7.87;;
18695;SDS011;22617;43.690;27.956;2024-03-02T01:48:07;22.83;;;7.43;;
18695;SDS011;22617;43.690;27.956;2024-03-02T01:53:11;27.00;;;6.97;;
18695;SDS011;22617;43.690;27.956;2024-03-02T01:58:16;22.70;;;7.60;;
18695;SDS011;22617;43.690;27.956;2024-03-02T02:03:19;25.80;;;8.63;;
18695;SDS011;22617;43.690;27.956;2024-03-02T02:08:23;17.57;;;6.90;;
18695;SDS011;22617;43.690;27.956;2024-03-02T02:13:28;22.03;;;8.57;;
18695;SDS011;22617;43.690;27.956;2024-03-02T02:18:32;30.00;;;8.03;;
18695;SDS011;22617;43.690;27.956;2024-03-02T02:23:37;31.40;;;8.80;;
18695;SDS011;22617;43.690;27.956;2024-03-02T02:28:40;24.77;;;8.27;;
18695;SDS011;22617;43.690;27.956;2024-03-02T02:33:48;27.37;;;9.67;;
18695;SDS011;22617;43.690;27.956;2024-03-02T02:38:53;35.37;;;10.77;;
18695;SDS011;22617;43.690;27.956;2024-03-02T02:43:57;31.17;;;10.60;;
18695;SDS011;22617;43.690;27.956;2024-03-02T02:49:00;29.97;;;11.07;;
18695;SDS011;22617;43.690;27.956;2024-03-02T02:54:06;33.37;;;11.70;;
18695;SDS011;22617;43.690;27.956;2024-03-02T02:59:09;28.00;;;11.00;;
18695;SDS011;22617;43.690;27.956;2024-03-02T03:04:13;34.43;;;13.07;;
18695;SDS011;22617;43.690;27.956;2024-03-02T03:09:18;34.03;;;11.50;;
18695;SDS011;22617;43.690;27.956;2024-03-02T03:14:21;37.83;;;11.70;;
18695;SDS011;22617;43.690;27.956;2024-03-02T03:19:25;28.20;;;10.10;;
18695;SDS011;22617;43.690;27.956;2024-03-02T03:24:30;29.30;;;11.07;;
18695;SDS011;22617;43.690;27.956;2024-03-02T03:29:35;30.87;;;11.23;;
18695;SDS011;22617;43.690;27.956;2024-03-02T03:34:39;28.80;;;10.50;;
18695;SDS011;22617;43.690;27.956;2024-03-02T03:39:44;25.43;;;10.63;;
18695;SDS011;22617;43.690;27.956;2024-03-02T03:44:48;24.20;;;10.20;;
18695;SDS011;22617;43.690;27.956;2024-03-02T03:49:52;29.37;;;10.87;;
18695;SDS011;22617;43.690;27.956;2024-03-02T03:54:57;21.90;;;10.27;;
18695;SDS011;22617;43.690;27.956;2024-03-02T04:00:00;29.93;;;11.20;;
18695;SDS011;22617;43.690;27.956;2024-03-02T04:05:12;30.47;;;11.70;;
18695;SDS011;22617;43.690;27.956;2024-03-02T04:10:18;28.97;;;11.00;;
18695;SDS011;22617;43.690;27.956;2024-03-02T04:15:22;24.20;;;10.77;;
18695;SDS011;22617;43.690;27.956;2024-03-02T04:20:26;29.67;;;10.73;;
18695;SDS011;22617;43.690;27.956;2024-03-02T04:25:31;31.43;;;13.23;;
18695;SDS011;22617;43.690;27.956;2024-03-02T04:30:34;28.30;;;11.73;;
18695;SDS011;22617;43.690;27.956;2024-03-02T04:35:38;29.83;;;12.47;;
18695;SDS011;22617;43.690;27.956;2024-03-02T04:40:43;28.27;;;11.70;;
18695;SDS011;22617;43.690;27.956;2024-03-02T04:45:46;32.63;;;11.67;;
18695;SDS011;22617;43.690;27.956;2024-03-02T04:50:50;26.50;;;11.60;;
18695;SDS011;22617;43.690;27.956;2024-03-02T04:55:55;27.63;;;10.70;;
18695;SDS011;22617;43.690;27.956;2024-03-02T05:01:26;28.07;;;12.00;;
18695;SDS011;22617;43.690;27.956;2024-03-02T05:06:30;26.23;;;11.10;;
18695;SDS011;22617;43.690;27.956;2024-03-02T05:11:35;25.93;;;11.60;;
18695;SDS011;22617;43.690;27.956;2024-03-02T05:16:58;36.20;;;12.90;;
18695;SDS011;22617;43.690;27.956;2024-03-02T05:22:01;27.37;;;11.80;;
18695;SDS011;22617;43.690;27.956;2024-03-02T05:27:06;31.40;;;11.20;;
18695;SDS011;22617;43.690;27.956;2024-03-02T05:32:10;29.97;;;10.97;;
18695;SDS011;22617;43.690;27.956;2024-03-02T05:37:13;30.13;;;11.20;;
18695;SDS011;22617;43.690;27.956;2024-03-02T05:42:18;22.00;;;10.57;;
18695;SDS011;22617;43.690;27.956;2024-03-02T05:47:22;27.33;;;10.50;;
18695;SDS011;22617;43.690;27.956;2024-03-02T05:52:25;25.67;;;10.30;;
18695;SDS011;22617;43.690;27.956;2024-03-02T05:57:31;28.97;;;11.33;;
18695;SDS011;22617;43.690;27.956;2024-03-02T06:02:51;39.87;;;13.17;;
18695;SDS011;22617;43.690;27.956;2024-03-02T06:07:55;26.13;;;11.30;;
18695;SDS011;22617;43.690;27.956;2024-03-02T06:13:00;26.13;;;10.03;;
18695;SDS011;22617;43.690;27.956;2024-03-02T06:18:04;24.70;;;10.23;;
18695;SDS011;22617;43.690;27.956;2024-03-02T06:23:08;23.20;;;10.53;;
18695;SDS011;22617;43.690;27.956;2024-03-02T06:28:13;24.03;;;10.27;;
18695;SDS011;22617;43.690;27.956;2024-03-02T06:33:17;23.23;;;10.23;;
18695;SDS011;22617;43.690;27.956;2024-03-02T06:38:21;27.50;;;11.77;;
18695;SDS011;22617;43.690;27.956;2024-03-02T06:43:26;30.30;;;11.67;;
18695;SDS011;22617;43.690;27.956;2024-03-02T06:48:29;28.30;;;10.73;;
18695;SDS011;22617;43.690;27.956;2024-03-02T06:53:33;22.93;;;9.80;;
18695;SDS011;22617;43.690;27.956;2024-03-02T06:58:38;21.67;;;9.73;;
18695;SDS011;22617;43.690;27.956;2024-03-02T07:03:41;22.70;;;9.87;;
18695;SDS011;22617;43.690;27.956;2024-03-02T07:08:45;24.70;;;9.93;;
18695;SDS011;22617;43.690;27.956;2024-03-02T07:13:50;22.23;;;9.17;;
18695;SDS011;22617;43.690;27.956;2024-03-02T07:18:54;25.17;;;11.23;;
18695;SDS011;22617;43.690;27.956;2024-03-02T07:23:58;19.93;;;8.63;;
18695;SDS011;22617;43.690;27.956;2024-03-02T07:29:06;19.10;;;9.03;;
18695;SDS011;22617;43.690;27.956;2024-03-02T07:34:09;17.13;;;8.10;;
18695;SDS011;22617;43.690;27.956;2024-03-02T07:39:13;21.47;;;9.50;;
18695;SDS011;22617;43.690;27.956;2024-03-02T07:44:18;20.60;;;8.33;;
18695;SDS011;22617;43.690;27.956;2024-03-02T07:49:22;23.03;;;8.10;;
18695;SDS011;22617;43.690;27.956;2024-03-02T07:54:26;19.83;;;9.57;;
18695;SDS011;22617;43.690;27.956;2024-03-02T07:59:31;22.03;;;9.10;;
18695;SDS011;22617;43.690;27.956;2024-03-02T08:04:34;19.00;;;9.03;;
18695;SDS011;22617;43.690;27.956;2024-03-02T08:09:38;18.37;;;7.97;;
18695;SDS011;22617;43.690;27.956;2024-03-02T08:14:43;19.27;;;8.30;;
18695;SDS011;22617;43.690;27.956;2024-03-02T08:19:47;17.47;;;8.03;;
18695;SDS011;22617;43.690;27.956;2024-03-02T08:24:51;18.93;;;8.23;;
18695;SDS011;22617;43.690;27.956;2024-03-02T08:29:56;17.00;;;8.10;;
18695;SDS011;22617;43.690;27.956;2024-03-02T08:34:59;21.87;;;8.87;;
18695;SDS011;22617;43.690;27.956;2024-03-02T08:40:05;19.57;;;7.93;;
18695;SDS011;22617;43.690;27.956;2024-03-02T08:45:11;19.13;;;9.93;;
18695;SDS011;22617;43.690;27.956;2024-03-02T08:50:15;16.13;;;8.77;;
18695;SDS011;22617;43.690;27.956;2024-03-02T08:55:19;16.20;;;7.70;;
18695;SDS011;22617;43.690;27.956;2024-03-02T09:00:24;22.13;;;7.97;;
18695;SDS011;22617;43.690;27.956;2024-03-02T09:05:28;19.07;;;7.87;;
18695;SDS011;22617;43.690;27.956;2024-03-02T09:10:31;15.60;;;7.17;;
18695;SDS011;22617;43.690;27.956;2024-03-02T09:15:37;19.63;;;8.50;;
18695;SDS011;22617;43.690;27.956;2024-03-02T09:20:41;17.50;;;7.20;;
18695;SDS011;22617;43.690;27.956;2024-03-02T09:25:45;20.60;;;7.10;;
18695;SDS011;22617;43.690;27.956;2024-03-02T09:30:50;18.63;;;7.80;;
18695;SDS011;22617;43.690;27.956;2024-03-02T09:35:53;16.73;;;7.77;;
18695;SDS011;22617;43.690;27.956;2024-03-02T09:40:57;19.87;;;8.47;;
18695;SDS011;22617;43.690;27.956;2024-03-02T09:46:02;20.10;;;7.87;;
18695;SDS011;22617;43.690;27.956;2024-03-02T09:51:06;19.07;;;8.60;;
18695;SDS011;22617;43.690;27.956;2024-03-02T09:56:11;16.07;;;7.50;;
18695;SDS011;22617;43.690;27.956;2024-03-02T10:01:16;17.77;;;7.63;;
18695;SDS011;22617;43.690;27.956;2024-03-02T10:06:20;17.77;;;8.00;;
18695;SDS011;22617;43.690;27.956;2024-03-02T10:11:25;16.07;;;7.47;;
18695;SDS011;22617;43.690;27.956;2024-03-02T10:16:33;19.00;;;7.30;;
18695;SDS011;22617;43.690;27.956;2024-03-02T10:21:39;18.20;;;7.57;;
18695;SDS011;22617;43.690;27.956;2024-03-02T10:26:44;21.37;;;7.77;;
18695;SDS011;22617;43.690;27.956;2024-03-02T10:31:49;19.27;;;7.37;;
18695;SDS011;22617;43.690;27.956;2024-03-02T10:36:52;17.13;;;7.30;;
18695;SDS011;22617;43.690;27.956;2024-03-02T10:41:57;18.90;;;8.17;;
18695;SDS011;22617;43.690;27.956;2024-03-02T10:47:04;19.70;;;7.83;;
18695;SDS011;22617;43.690;27.956;2024-03-02T10:52:08;17.23;;;7.83;;
18695;SDS011;22617;43.690;27.956;2024-03-02T10:57:12;17.53;;;7.43;;
18695;SDS011;22617;43.690;27.956;2024-03-02T11:02:19;16.07;;;6.93;;
18695;SDS011;22617;43.690;27.956;2024-03-02T11:07:25;24.03;;;8.47;;
18695;SDS011;22617;43.690;27.956;2024-03-02T11:12:31;19.57;;;9.13;;
18695;SDS011;22617;43.690;27.956;2024-03-02T11:17:43;21.23;;;9.53;;
18695;SDS011;22617;43.690;27.956;2024-03-02T11:22:47;26.13;;;10.50;;
18695;SDS011;22617;43.690;27.956;2024-03-02T11:28:01;21.70;;;8.40;;
18695;SDS011;22617;43.690;27.956;2024-03-02T11:33:07;18.23;;;8.43;;
18695;SDS011;22617;43.690;27.956;2024-03-02T11:38:14;20.70;;;8.10;;
18695;SDS011;22617;43.690;27.956;2024-03-02T11:43:17;19.47;;;8.30;;
18695;SDS011;22617;43.690;27.956;2024-03-02T11:48:23;20.90;;;8.20;;
18695;SDS011;22617;43.690;27.956;2024-03-02T11:53:28;16.27;;;7.50;;
18695;SDS011;22617;43.690;27.956;2024-03-02T11:58:36;16.57;;;8.40;;
18695;SDS011;22617;43.690;27.956;2024-03-02T12:03:44;20.60;;;7.77;;
18695;SDS011;22617;43.690;27.956;2024-03-02T12:08:52;15.57;;;7.30;;
18695;SDS011;22617;43.690;27.956;2024-03-02T12:13:55;16.63;;;8.27;;
18695;SDS011;22617;43.690;27.956;2024-03-02T12:19:02;16.60;;;8.17;;
18695;SDS011;22617;43.690;27.956;2024-03-02T12:24:06;15.83;;;7.43;;
18695;SDS011;22617;43.690;27.956;2024-03-02T12:29:09;18.40;;;7.37;;
18695;SDS011;22617;43.690;27.956;2024-03-02T12:34:15;15.93;;;6.83;;
18695;SDS011;22617;43.690;27.956;2024-03-02T12:39:20;18.03;;;8.13;;
18695;SDS011;22617;43.690;27.956;2024-03-02T12:44:25;16.73;;;6.60;;
18695;SDS011;22617;43.690;27.956;2024-03-02T12:49:29;14.13;;;7.17;;
18695;SDS011;22617;43.690;27.956;2024-03-02T12:54:34;14.17;;;6.23;;
18695;SDS011;22617;43.690;27.956;2024-03-02T12:59:37;19.03;;;6.63;;
18695;SDS011;22617;43.690;27.956;2024-03-02T13:04:42;16.43;;;6.67;;
18695;SDS011;22617;43.690;27.956;2024-03-02T13:09:46;14.20;;;5.63;;
18695;SDS011;22617;43.690;27.956;2024-03-02T13:14:49;17.13;;;7.47;;
18695;SDS011;22617;43.690;27.956;2024-03-02T13:19:56;18.60;;;6.27;;
18695;SDS011;22617;43.690;27.956;2024-03-02T13:25:00;15.53;;;6.80;;
18695;SDS011;22617;43.690;27.956;2024-03-02T13:30:06;11.23;;;5.73;;
18695;SDS011;22617;43.690;27.956;2024-03-02T13:35:13;15.53;;;6.67;;
18695;SDS011;22617;43.690;27.956;2024-03-02T13:40:16;18.80;;;7.13;;
18695;SDS011;22617;43.690;27.956;2024-03-02T13:45:22;17.17;;;8.03;;
18695;SDS011;22617;43.690;27.956;2024-03-02T13:50:27;17.97;;;7.07;;
18695;SDS011;22617;43.690;27.956;2024-03-02T13:55:31;15.60;;;6.23;;
18695;SDS011;22617;43.690;27.956;2024-03-02T14:00:35;22.20;;;8.27;;
18695;SDS011;22617;43.690;27.956;2024-03-02T14:05:40;21.57;;;7.63;;
18695;SDS011;22617;43.690;27.956;2024-03-02T14:10:44;23.83;;;8.50;;
18695;SDS011;22617;43.690;27.956;2024-03-02T14:15:47;22.93;;;7.80;;
18695;SDS011;22617;43.690;27.956;2024-03-02T14:20:52;19.67;;;8.20;;
18695;SDS011;22617;43.690;27.956;2024-03-02T14:25:56;26.93;;;7.57;;
18695;SDS011;22617;43.690;27.956;2024-03-02T14:31:01;33.10;;;13.20;;
18695;SDS011;22617;43.690;27.956;2024-03-02T14:36:06;22.57;;;8.30;;
18695;SDS011;22617;43.690;27.956;2024-03-02T14:41:10;21.17;;;8.03;;
18695;SDS011;22617;43.690;27.956;2024-03-02T14:46:14;19.43;;;8.27;;
18695;SDS011;22617;43.690;27.956;2024-03-02T14:51:20;16.40;;;7.57;;
18695;SDS011;22617;43.690;27.956;2024-03-02T14:56:24;20.90;;;8.53;;
18695;SDS011;22617;43.690;27.956;2024-03-02T15:01:27;23.17;;;9.33;;
18695;SDS011;22617;43.690;27.956;2024-03-02T15:06:32;23.40;;;8.90;;
18695;SDS011;22617;43.690;27.956;2024-03-02T15:11:36;21.87;;;9.80;;
18695;SDS011;22617;43.690;27.956;2024-03-02T15:16:40;26.20;;;12.27;;
18695;SDS011;22617;43.690;27.956;2024-03-02T15:21:45;22.30;;;9.63;;
18695;SDS011;22617;43.690;27.956;2024-03-02T15:26:49;27.50;;;12.37;;
18695;SDS011;22617;43.690;27.956;2024-03-02T15:31:52;24.70;;;11.27;;
18695;SDS011;22617;43.690;27.956;2024-03-02T15:36:57;28.83;;;12.83;;
18695;SDS011;22617;43.690;27.956;2024-03-02T15:42:01;25.03;;;11.33;;
18695;SDS011;22617;43.690;27.956;2024-03-02T15:47:06;26.57;;;10.70;;
18695;SDS011;22617;43.690;27.956;2024-03-02T15:52:12;28.00;;;11.43;;
18695;SDS011;22617;43.690;27.956;2024-03-02T15:57:20;26.17;;;11.63;;
18695;SDS011;22617;43.690;27.956;2024-03-02T16:02:24;26.63;;;11.60;;
18695;SDS011;22617;43.690;27.956;2024-03-02T16:07:29;28.80;;;11.23;;
18695;SDS011;22617;43.690;27.956;2024-03-02T16:12:33;32.30;;;12.17;;
18695;SDS011;22617;43.690;27.956;2024-03-02T16:17:37;27.10;;;10.93;;
18695;SDS011;22617;43.690;27.956;2024-03-02T16:22:42;30.57;;;12.33;;
18695;SDS011;22617;43.690;27.956;2024-03-02T16:27:45;29.33;;;11.93;;
18695;SDS011;22617;43.690;27.956;2024-03-02T16:32:49;29.73;;;11.83;;
18695;SDS011;22617;43.690;27.956;2024-03-02T16:37:54;29.67;;;12.77;;
18695;SDS011;22617;43.690;27.956;2024-03-02T16:42:58;35.43;;;13.40;;
18695;SDS011;22617;43.690;27.956;2024-03-02T16:48:02;33.27;;;12.67;;
18695;SDS011;22617;43.690;27.956;2024-03-02T16:53:09;32.13;;;13.23;;
18695;SDS011;22617;43.690;27.956;2024-03-02T16:58:12;40.30;;;14.10;;
18695;SDS011;22617;43.690;27.956;2024-03-02T17:03:16;41.43;;;15.27;;
18695;SDS011;22617;43.690;27.956;2024-03-02T17:08:21;35.20;;;14.43;;
18695;SDS011;22617;43.690;27.956;2024-03-02T17:13:25;42.37;;;15.60;;
18695;SDS011;22617;43.690;27.956;2024-03-02T17:18:28;37.60;;;14.80;;
18695;SDS011;22617;43.690;27.956;2024-03-02T17:23:33;38.43;;;17.27;;
18695;SDS011;22617;43.690;27.956;2024-03-02T17:28:37;45.13;;;17.43;;
18695;SDS011;22617;43.690;27.956;2024-03-02T17:33:43;52.37;;;18.23;;
18695;SDS011;22617;43.690;27.956;2024-03-02T17:38:49;54.03;;;21.33;;
18695;SDS011;22617;43.690;27.956;2024-03-02T17:43:52;41.37;;;17.97;;
18695;SDS011;22617;43.690;27.956;2024-03-02T17:48:56;39.23;;;17.33;;
18695;SDS011;22617;43.690;27.956;2024-03-02T17:54:03;44.57;;;18.17;;
18695;SDS011;22617;43.690;27.956;2024-03-02T17:59:08;48.07;;;17.03;;
18695;SDS011;22617;43.690;27.956;2024-03-02T18:04:11;40.57;;;17.30;;
18695;SDS011;22617;43.690;27.956;2024-03-02T18:09:16;40.07;;;16.17;;
18695;SDS011;22617;43.690;27.956;2024-03-02T18:14:20;35.93;;;15.90;;
18695;SDS011;22617;43.690;27.956;2024-03-02T18:19:24;42.27;;;15.50;;
18695;SDS011;22617;43.690;27.956;2024-03-02T18:24:29;37.03;;;15.73;;
18695;SDS011;22617;43.690;27.956;2024-03-02T18:29:34;38.63;;;14.83;;
18695;SDS011;22617;43.690;27.956;2024-03-02T18:34:38;39.23;;;15.53;;
18695;SDS011;22617;43.690;27.956;2024-03-02T18:39:44;44.90;;;15.33;;
18695;SDS011;22617;43.690;27.956;2024-03-02T18:44:48;37.43;;;14.90;;
18695;SDS011;22617;43.690;27.956;2024-03-02T18:49:53;40.47;;;15.13;;
18695;SDS011;22617;43.690;27.956;2024-03-02T18:54:58;40.97;;;16.17;;
18695;SDS011;22617;43.690;27.956;2024-03-02T19:00:05;39.70;;;16.13;;
18695;SDS011;22617;43.690;27.956;2024-03-02T19:05:15;40.50;;;15.50;;
18695;SDS011;22617;43.690;27.956;2024-03-02T19:10:20;35.80;;;16.93;;
18695;SDS011;22617;43.690;27.956;2024-03-02T19:15:23;39.47;;;15.90;;
18695;SDS011;22617;43.690;27.956;2024-03-02T19:20:27;37.97;;;15.13;;
18695;SDS011;22617;43.690;27.956;2024-03-02T19:25:32;42.80;;;15.87;;
18695;SDS011;22617;43.690;27.956;2024-03-02T19:30:36;35.87;;;15.00;;
18695;SDS011;22617;43.690;27.956;2024-03-02T19:35:39;40.70;;;14.43;;
18695;SDS011;22617;43.690;27.956;2024-03-02T19:40:46;35.70;;;13.87;;
18695;SDS011;22617;43.690;27.956;2024-03-02T19:45:50;39.93;;;14.50;;
18695;SDS011;22617;43.690;27.956;2024-03-02T19:50:55;36.13;;;15.03;;
18695;SDS011;22617;43.690;27.956;2024-03-02T19:56:00;36.87;;;14.13;;
18695;SDS011;22617;43.690;27.956;2024-03-02T20:01:04;32.33;;;13.27;;
18695;SDS011;22617;43.690;27.956;2024-03-02T20:06:09;39.20;;;14.77;;
18695;SDS011;22617;43.690;27.956;2024-03-02T20:11:14;37.10;;;14.37;;
18695;SDS011;22617;43.690;27.956;2024-03-02T20:16:18;38.00;;;13.83;;
18695;SDS011;22617;43.690;27.956;2024-03-02T20:21:22;34.80;;;14.60;;
18695;SDS011;22617;43.690;27.956;2024-03-02T20:26:28;43.77;;;16.37;;
18695;SDS011;22617;43.690;27.956;2024-03-02T20:31:31;31.70;;;14.13;;
18695;SDS011;22617;43.690;27.956;2024-03-02T20:36:37;33.90;;;14.50;;
18695;SDS011;22617;43.690;27.956;2024-03-02T20:41:44;38.20;;;15.17;;
18695;SDS011;22617;43.690;27.956;2024-03-02T20:46:47;40.30;;;15.93;;
18695;SDS011;22617;43.690;27.956;2024-03-02T20:51:51;34.80;;;15.73;;
18695;SDS011;22617;43.690;27.956;2024-03-02T20:56:56;34.43;;;15.17;;
18695;SDS011;22617;43.690;27.956;2024-03-02T21:02:01;35.43;;;15.10;;
18695;SDS011;22617;43.690;27.956;2024-03-02T21:07:05;34.93;;;14.13;;
18695;SDS011;22617;43.690;27.956;2024-03-02T21:12:10;33.60;;;15.30;;
18695;SDS011;22617;43.690;27.956;2024-03-02T21:17:13;33.93;;;15.30;;
18695;SDS011;22617;43.690;27.956;2024-03-02T21:22:17;38.53;;;15.50;;
18695;SDS011;22617;43.690;27.956;2024-03-02T21:27:26;40.03;;;16.10;;
18695;SDS011;22617;43.690;27.956;2024-03-02T21:32:29;39.73;;;15.13;;
18695;SDS011;22617;43.690;27.956;2024-03-02T21:37:33;34.53;;;14.90;;
18695;SDS011;22617;43.690;27.956;2024-03-02T21:42:38;35.37;;;14.40;;
18695;SDS011;22617;43.690;27.956;2024-03-02T21:47:42;41.57;;;14.33;;
18695;SDS011;22617;43.690;27.956;2024-03-02T21:52:46;37.27;;;13.77;;
18695;SDS011;22617;43.690;27.956;2024-03-02T21:57:52;33.97;;;13.10;;
18695;SDS011;22617;43.690;27.956;2024-03-02T22:02:56;29.60;;;13.30;;
18695;SDS011;22617;43.690;27.956;2024-03-02T22:08:00;38.00;;;13.40;;
18695;SDS011;22617;43.690;27.956;2024-03-02T22:13:05;29.40;;;12.67;;
18695;SDS011;22617;43.690;27.956;2024-03-02T22:18:08;31.63;;;12.43;;
18695;SDS011;22617;43.690;27.956;2024-03-02T22:23:12;33.27;;;13.47;;
18695;SDS011;22617;43.690;27.956;2024-03-02T22:28:18;28.57;;;12.37;;
18695;SDS011;22617;43.690;27.956;2024-03-02T22:33:21;28.10;;;11.53;;
18695;SDS011;22617;43.690;27.956;2024-03-02T22:38:25;33.23;;;13.80;;
18695;SDS011;22617;43.690;27.956;2024-03-02T22:43:29;28.80;;;12.00;;
18695;SDS011;22617;43.690;27.956;2024-03-02T22:48:33;30.37;;;11.80;;
18695;SDS011;22617;43.690;27.956;2024-03-02T22:53:37;28.77;;;11.53;;
18695;SDS011;22617;43.690;27.956;2024-03-02T22:58:42;31.67;;;12.50;;
18695;SDS011;22617;43.690;27.956;2024-03-02T23:03:45;29.47;;;12.57;;
18695;SDS011;22617;43.690;27.956;2024-03-02T23:08:49;26.07;;;12.33;;
18695;SDS011;22617;43.690;27.956;2024-03-02T23:13:54;29.90;;;12.27;;
18695;SDS011;22617;43.690;27.956;2024-03-02T23:18:57;28.90;;;12.07;;
18695;SDS011;22617;43.690;27.956;2024-03-02T23:24:01;30.33;;;12.80;;
18695;SDS011;22617;43.690;27.956;2024-03-02T23:29:06;34.00;;;12.73;;
18695;SDS011;22617;43.690;27.956;2024-03-02T23:34:10;31.20;;;13.67;;
18695;SDS011;22617;43.690;27.956;2024-03-02T23:39:14;35.20;;;13.87;;
18695;SDS011;22617;43.690;27.956;2024-03-02T23:44:40;31.27;;;13.97;;
18695;SDS011;22617;43.690;27.956;2024-03-02T23:49:44;31.70;;;13.30;;
18695;SDS011;22617;43.690;27.956;2024-03-02T23:54:47;33.20;;;13.67;;
18695;SDS011;22617;43.690;27.956;2024-03-02T23:59:52;31.10;;;12.97;;
